Terminal Aerodrome Forecast
Issued by NWS

Home | Current Version | Previous Version | Text Only | Print | Product List | Glossary Off
Versions: 1 2 3 4 5 6 7 8 9 10 11 12 13 14

000
FTUS43 KEAX 230500
TAFMKC
TAF
KMKC 230520Z 2306/2406 15005KT P6SM SCT200
     FM231500 16011KT P6SM SCT080 OVC100
     FM240300 14009KT P6SM VCSH SCT040 BKN070=

USA.gov is the U.S. government's official web portal to all federal, state and local government web resources and services.